Time;durP1;ratioP1;P1;durP2;ratioP2;P2;SDS_P1;SDS_P2;PMS_P1;PMS_P2;Temp;Humidity;BMP_temperature;BMP_pressure;BME280_temperature;BME280_humidity;BME280_pressure;Samples;Min_cycle;Max_cycle;Signal;HPM_P1;HPM_P2
2023/02/04 00:00:12;;;;;;;1.60;1.20;;;8.60;98.20;;;;;;5076250;28;20489;-74
2023/02/04 00:02:39;;;;;;;1.60;1.20;;;8.60;98.20;;;;;;5057212;28;20492;-74
2023/02/04 00:05:07;;;;;;;1.60;1.20;;;8.60;98.20;;;;;;5066145;28;20470;-74
2023/02/04 00:07:34;;;;;;;1.60;1.27;;;8.60;98.20;;;;;;5057454;28;20644;-74
2023/02/04 00:10:01;;;;;;;1.60;1.17;;;8.60;98.20;;;;;;5069952;28;20933;-74
2023/02/04 00:12:28;;;;;;;1.60;1.20;;;8.60;98.20;;;;;;5063794;28;21160;-74
2023/02/04 00:14:56;;;;;;;1.70;1.40;;;8.60;98.20;;;;;;5068766;28;20487;-74
2023/02/04 00:17:23;;;;;;;1.60;1.20;;;8.60;98.20;;;;;;5057746;28;20578;-74
2023/02/04 00:19:50;;;;;;;1.60;1.20;;;8.50;98.20;;;;;;5074452;28;20488;-74
2023/02/04 00:22:17;;;;;;;1.60;1.20;;;8.50;98.20;;;;;;5049632;28;20572;-75
2023/02/04 00:24:48;;;;;;;1.60;1.20;;;8.50;98.20;;;;;;5069130;28;20537;-74
2023/02/04 00:27:15;;;;;;;1.60;1.30;;;8.50;98.20;;;;;;5063910;28;20477;-74
2023/02/04 00:29:42;;;;;;;1.60;1.40;;;8.50;98.20;;;;;;5067814;28;20465;-74
2023/02/04 00:32:10;;;;;;;1.60;1.30;;;8.50;98.20;;;;;;5056821;28;20547;-74
2023/02/04 00:34:37;;;;;;;1.60;1.20;;;8.50;98.20;;;;;;5068626;28;20454;-73
2023/02/04 00:37:04;;;;;;;1.60;1.17;;;8.50;98.20;;;;;;5056068;28;20567;-75
2023/02/04 00:39:31;;;;;;;1.60;1.20;;;8.50;98.20;;;;;;5071445;28;20468;-74
2023/02/04 00:41:58;;;;;;;1.60;1.20;;;8.50;98.20;;;;;;5058045;28;20867;-74
2023/02/04 00:44:25;;;;;;;1.60;1.20;;;8.50;98.20;;;;;;5080785;28;20460;-74
2023/02/04 00:46:52;;;;;;;1.60;1.20;;;8.40;98.20;;;;;;5075566;28;20540;-74
2023/02/04 00:49:20;;;;;;;1.60;1.20;;;8.40;98.20;;;;;;5081167;28;20559;-74
2023/02/04 00:51:47;;;;;;;1.60;1.20;;;8.40;98.20;;;;;;5060877;28;20493;-74
2023/02/04 00:54:15;;;;;;;1.60;1.20;;;8.40;98.20;;;;;;5078777;28;20479;-74
2023/02/04 00:56:43;;;;;;;1.67;1.30;;;8.40;98.20;;;;;;5076316;28;20484;-74
2023/02/04 00:59:10;;;;;;;1.60;1.20;;;8.40;98.20;;;;;;5077247;28;20464;-74
2023/02/04 01:01:37;;;;;;;1.60;1.20;;;8.40;98.20;;;;;;5063803;28;20507;-74
2023/02/04 01:04:04;;;;;;;1.60;1.13;;;8.40;98.20;;;;;;5073684;28;20473;-74
2023/02/04 01:06:33;;;;;;;1.60;1.20;;;8.40;98.20;;;;;;5057049;28;20535;-74
2023/02/04 01:09:00;;;;;;;1.63;1.20;;;8.40;98.20;;;;;;5074302;28;20460;-74
2023/02/04 01:11:27;;;;;;;1.60;1.30;;;8.40;98.20;;;;;;5076121;28;20485;-74
2023/02/04 01:13:54;;;;;;;1.60;1.20;;;8.40;98.20;;;;;;5078912;28;20457;-75
2023/02/04 01:16:21;;;;;;;1.60;1.20;;;8.40;98.20;;;;;;5059785;28;20567;-74
2023/02/04 01:18:48;;;;;;;1.60;1.30;;;8.40;98.20;;;;;;5081494;28;20463;-74
2023/02/04 01:21:15;;;;;;;1.60;1.10;;;8.30;98.20;;;;;;5056767;28;20491;-74
2023/02/04 01:23:43;;;;;;;1.60;1.20;;;8.30;98.20;;;;;;5067894;28;20469;-74
2023/02/04 01:26:10;;;;;;;1.60;1.30;;;8.30;98.20;;;;;;5066436;28;20570;-75
2023/02/04 01:28:37;;;;;;;1.60;1.27;;;8.30;98.20;;;;;;5080752;28;20461;-74
2023/02/04 01:31:04;;;;;;;1.60;1.30;;;8.30;98.20;;;;;;5074147;28;20544;-74
2023/02/04 01:33:31;;;;;;;1.60;1.30;;;8.30;98.20;;;;;;5075357;28;20465;-74
2023/02/04 01:35:58;;;;;;;1.63;1.30;;;8.30;98.20;;;;;;5056324;28;20480;-74
2023/02/04 01:38:25;;;;;;;1.63;1.40;;;8.20;98.20;;;;;;5066797;28;20904;-74
2023/02/04 01:40:54;;;;;;;1.60;1.20;;;8.30;98.20;;;;;;5072760;28;20480;-74
2023/02/04 01:43:22;;;;;;;1.60;1.20;;;8.20;98.20;;;;;;5080948;28;20731;-74
2023/02/04 01:45:49;;;;;;;1.60;1.23;;;8.20;98.20;;;;;;5067011;28;20956;-74
2023/02/04 01:48:19;;;;;;;1.60;1.30;;;8.20;98.20;;;;;;5075751;28;20460;-74
2023/02/04 01:50:46;;;;;;;1.60;1.20;;;8.20;98.20;;;;;;5074623;28;20974;-74
2023/02/04 01:53:14;;;;;;;1.60;1.13;;;8.20;98.20;;;;;;5040799;28;20687;-74
2023/02/04 01:55:41;;;;;;;1.60;1.20;;;8.20;98.20;;;;;;5068846;28;20461;-74
2023/02/04 01:58:12;;;;;;;1.60;1.20;;;8.20;98.20;;;;;;5064246;28;20982;-74
2023/02/04 02:00:39;;;;;;;1.60;1.20;;;8.10;98.20;;;;;;5067691;28;20489;-74
2023/02/04 02:03:08;;;;;;;1.60;1.20;;;8.10;98.20;;;;;;5056153;28;20493;-74
2023/02/04 02:05:40;;;;;;;13.37;9.63;;;8.10;98.20;;;;;;5072539;28;20568;-74
2023/02/04 02:08:08;;;;;;;3.50;3.30;;;8.10;98.20;;;;;;5055736;28;20516;-74
2023/02/04 02:10:37;;;;;;;1.60;1.20;;;8.10;98.20;;;;;;5072183;28;20491;-74
2023/02/04 02:13:05;;;;;;;1.60;1.20;;;8.10;98.20;;;;;;5056232;28;20493;-74
2023/02/04 02:15:33;;;;;;;1.60;1.20;;;8.10;98.20;;;;;;5074525;28;20511;-74
2023/02/04 02:18:00;;;;;;;1.60;1.20;;;8.10;98.20;;;;;;5053164;28;20557;-74
2023/02/04 02:20:28;;;;;;;1.60;1.30;;;8.10;98.20;;;;;;5066938;28;20489;-74
2023/02/04 02:23:06;;;;;;;1.60;1.20;;;8.10;98.20;;;;;;5054986;28;20494;-74
2023/02/04 02:25:34;;;;;;;1.60;1.30;;;8.10;98.20;;;;;;5066426;28;20458;-74
2023/02/04 02:28:02;;;;;;;1.60;1.20;;;8.00;98.20;;;;;;5071687;28;20512;-73
2023/02/04 02:30:30;;;;;;;1.60;1.20;;;8.10;98.20;;;;;;5072475;28;20493;-74
2023/02/04 02:32:57;;;;;;;1.60;1.20;;;8.00;98.20;;;;;;5041171;28;20847;-74
2023/02/04 02:35:24;;;;;;;1.60;1.20;;;8.10;98.20;;;;;;5064918;28;20450;-74
2023/02/04 02:37:51;;;;;;;1.60;1.17;;;8.10;98.20;;;;;;5053911;28;20535;-74
2023/02/04 02:40:19;;;;;;;1.60;1.20;;;8.00;98.20;;;;;;5066411;28;20544;-75
2023/02/04 02:42:51;;;;;;;1.60;1.20;;;8.00;98.20;;;;;;5053175;28;20489;-74
2023/02/04 02:45:26;;;;;;;1.60;1.20;;;8.00;98.20;;;;;;5060599;28;20458;-74
2023/02/04 02:47:54;;;;;;;1.60;1.20;;;8.00;98.20;;;;;;5055177;28;20489;-74
2023/02/04 02:50:24;;;;;;;1.60;1.20;;;8.00;98.20;;;;;;5071663;28;20453;-74
2023/02/04 02:52:52;;;;;;;1.60;1.30;;;8.00;98.20;;;;;;5065512;28;20484;-76
2023/02/04 02:55:21;;;;;;;1.60;1.20;;;8.00;98.20;;;;;;5063901;28;20468;-76
2023/02/04 02:57:51;;;;;;;1.60;1.20;;;8.00;98.20;;;;;;5057371;28;20477;-76
2023/02/04 03:00:22;;;;;;;1.60;1.20;;;8.00;98.20;;;;;;5070611;28;20465;-77
2023/02/04 03:02:55;;;;;;;1.60;1.20;;;8.00;98.20;;;;;;5056308;28;20500;-75
2023/02/04 03:05:22;;;;;;;1.60;1.20;;;7.90;98.20;;;;;;5068634;28;20461;-77
2023/02/04 03:07:49;;;;;;;1.60;1.23;;;7.90;98.20;;;;;;5056684;28;20505;-74
2023/02/04 03:10:17;;;;;;;1.63;1.33;;;7.90;98.20;;;;;;5070348;28;20460;-76
2023/02/04 03:12:44;;;;;;;1.60;1.20;;;7.90;98.20;;;;;;5058821;28;20733;-75
2023/02/04 03:15:14;;;;;;;1.60;1.20;;;7.90;98.20;;;;;;5068192;28;20466;-77
2023/02/04 03:17:42;;;;;;;1.60;1.20;;;7.90;98.20;;;;;;5055736;28;20489;-77
2023/02/04 03:20:10;;;;;;;1.60;1.20;;;7.90;98.20;;;;;;5058035;28;20461;-74
2023/02/04 03:22:36;;;;;;;1.67;1.30;;;7.90;98.20;;;;;;5052420;28;20485;-76
2023/02/04 03:25:04;;;;;;;1.60;1.10;;;7.90;98.20;;;;;;5068360;28;20555;-74
2023/02/04 03:27:31;;;;;;;1.60;1.20;;;7.90;98.20;;;;;;5056287;28;20493;-75
2023/02/04 03:29:58;;;;;;;1.60;1.20;;;7.90;98.20;;;;;;5067425;28;20544;-76
2023/02/04 03:32:26;;;;;;;1.60;1.20;;;7.90;98.20;;;;;;5056499;28;20493;-75
2023/02/04 03:34:53;;;;;;;1.63;1.30;;;7.90;98.20;;;;;;5071141;28;21113;-74
2023/02/04 03:37:20;;;;;;;1.60;1.20;;;7.80;98.20;;;;;;5047505;28;20481;-74
2023/02/04 03:39:47;;;;;;;1.60;1.10;;;7.80;98.20;;;;;;5067944;28;20478;-74
2023/02/04 03:42:14;;;;;;;1.70;1.40;;;7.80;98.20;;;;;;5056275;28;21241;-76
2023/02/04 03:44:40;;;;;;;1.60;1.30;;;7.80;98.20;;;;;;5068820;28;20466;-77
2023/02/04 03:47:07;;;;;;;1.60;1.20;;;7.80;98.20;;;;;;5056737;28;21033;-75
2023/02/04 03:49:35;;;;;;;1.60;1.20;;;7.80;98.20;;;;;;5068536;28;20489;-76
2023/02/04 03:52:03;;;;;;;1.60;1.20;;;7.80;98.20;;;;;;5056342;28;20489;-76
2023/02/04 03:54:30;;;;;;;1.60;1.20;;;7.70;98.20;;;;;;5068447;28;20564;-76
2023/02/04 03:56:57;;;;;;;1.63;1.27;;;7.70;98.20;;;;;;5054871;28;20489;-76
2023/02/04 03:59:24;;;;;;;1.60;1.17;;;7.70;98.20;;;;;;5054588;28;20501;-76
2023/02/04 04:01:51;;;;;;;1.60;1.20;;;7.70;98.20;;;;;;5043092;28;20494;-75
2023/02/04 04:04:19;;;;;;;1.60;1.30;;;7.70;98.20;;;;;;5054856;28;20470;-75
2023/02/04 04:06:47;;;;;;;1.60;1.20;;;7.70;98.20;;;;;;5049458;28;21027;-74
2023/02/04 04:09:14;;;;;;;1.60;1.20;;;7.70;98.20;;;;;;5065723;28;20473;-75
2023/02/04 04:11:42;;;;;;;1.60;1.20;;;7.70;98.20;;;;;;5040658;28;20500;-75
2023/02/04 04:14:08;;;;;;;1.60;1.20;;;7.70;98.20;;;;;;5068645;28;20460;-75
2023/02/04 04:16:35;;;;;;;1.70;1.30;;;7.60;98.20;;;;;;5052552;28;21193;-75
2023/02/04 04:19:02;;;;;;;1.60;1.20;;;7.60;98.20;;;;;;5064007;28;20523;-75
2023/02/04 04:21:29;;;;;;;1.60;1.20;;;7.60;98.20;;;;;;5049123;28;20484;-74
2023/02/04 04:23:58;;;;;;;1.60;1.20;;;7.60;98.20;;;;;;5067064;28;20462;-74
2023/02/04 04:26:25;;;;;;;1.60;1.20;;;7.60;98.20;;;;;;5032185;28;20537;-75
2023/02/04 04:28:52;;;;;;;1.67;1.30;;;7.60;98.20;;;;;;5071716;28;20468;-75
2023/02/04 04:31:19;;;;;;;1.60;1.30;;;7.60;98.20;;;;;;5051313;28;20881;-75
2023/02/04 04:33:46;;;;;;;1.67;1.30;;;7.60;98.20;;;;;;5078165;28;20461;-75
2023/02/04 04:36:14;;;;;;;1.60;1.30;;;7.50;98.20;;;;;;5056721;28;20479;-75
2023/02/04 04:38:42;;;;;;;1.60;1.30;;;7.50;98.20;;;;;;5059044;28;20461;-75
2023/02/04 04:41:10;;;;;;;1.60;1.20;;;7.50;98.20;;;;;;5049235;28;20504;-74
2023/02/04 04:43:37;;;;;;;1.60;1.30;;;7.50;98.20;;;;;;5060342;28;20466;-75
2023/02/04 04:46:04;;;;;;;1.67;1.23;;;7.50;98.20;;;;;;5047630;28;20670;-75
2023/02/04 04:48:32;;;;;;;1.60;1.20;;;7.50;98.20;;;;;;5074904;28;20886;-75
2023/02/04 04:50:59;;;;;;;1.60;1.20;;;7.50;98.20;;;;;;5053970;28;20822;-75
2023/02/04 04:53:26;;;;;;;1.63;1.20;;;7.50;98.20;;;;;;5056785;28;20478;-74
2023/02/04 04:55:53;;;;;;;1.63;1.20;;;7.50;98.20;;;;;;5049571;28;20649;-75
2023/02/04 04:58:21;;;;;;;1.63;1.20;;;7.40;98.20;;;;;;5050200;28;21000;-75
2023/02/04 05:00:48;;;;;;;1.63;1.20;;;7.50;98.20;;;;;;5053446;28;20455;-75
2023/02/04 05:03:15;;;;;;;1.63;1.30;;;7.40;98.20;;;;;;5061038;28;20504;-75
2023/02/04 05:05:43;;;;;;;1.67;1.30;;;7.40;98.20;;;;;;5060018;28;20458;-74
2023/02/04 05:08:12;;;;;;;1.60;1.10;;;7.40;98.20;;;;;;5060806;28;20473;-74
2023/02/04 05:10:39;;;;;;;1.70;1.30;;;7.40;98.20;;;;;;5060996;28;20458;-74
2023/02/04 05:13:06;;;;;;;1.67;1.20;;;7.40;98.20;;;;;;5044526;28;20565;-74
2023/02/04 05:15:35;;;;;;;1.67;1.30;;;7.40;98.20;;;;;;5055028;28;20885;-75
2023/02/04 05:18:02;;;;;;;1.60;1.30;;;7.40;98.20;;;;;;5065062;28;20897;-74
2023/02/04 05:20:30;;;;;;;1.60;1.20;;;7.40;98.20;;;;;;5056166;28;20836;-74
2023/02/04 05:22:59;;;;;;;1.60;1.20;;;7.40;98.20;;;;;;5065805;28;20481;-75
2023/02/04 05:25:27;;;;;;;1.60;1.20;;;7.40;98.20;;;;;;5056451;28;20688;-75
2023/02/04 05:27:54;;;;;;;1.60;1.20;;;7.40;98.20;;;;;;5054230;28;20564;-74
2023/02/04 05:30:21;;;;;;;1.60;1.30;;;7.30;98.20;;;;;;5060741;28;20461;-75
2023/02/04 05:32:49;;;;;;;1.60;1.30;;;7.30;98.20;;;;;;5045072;28;20579;-75
2023/02/04 05:35:16;;;;;;;1.60;1.20;;;7.30;98.20;;;;;;5055567;28;20556;-74
2023/02/04 05:37:43;;;;;;;1.60;1.20;;;7.30;98.20;;;;;;5041108;28;20478;-74
2023/02/04 05:40:11;;;;;;;1.60;1.20;;;7.30;98.20;;;;;;5056701;28;20470;-75
2023/02/04 05:42:38;;;;;;;1.60;1.20;;;7.30;98.20;;;;;;5043160;28;20514;-74
2023/02/04 05:45:06;;;;;;;1.60;1.20;;;7.30;98.20;;;;;;5059095;28;20453;-75
2023/02/04 05:47:33;;;;;;;1.60;1.20;;;7.30;98.20;;;;;;5046543;28;20562;-75
2023/02/04 05:50:01;;;;;;;1.60;1.27;;;7.20;98.20;;;;;;5062604;28;20489;-74
2023/02/04 05:52:28;;;;;;;1.70;1.40;;;7.20;98.20;;;;;;5052907;28;21044;-75
2023/02/04 05:55:02;;;;;;;1.60;1.30;;;7.20;98.20;;;;;;5060232;28;20457;-74
2023/02/04 05:57:28;;;;;;;1.60;1.20;;;7.20;98.20;;;;;;5055029;28;20477;-75
2023/02/04 05:59:55;;;;;;;1.60;1.30;;;7.20;98.20;;;;;;5058066;28;20451;-75
2023/02/04 06:02:23;;;;;;;1.60;1.20;;;7.20;98.20;;;;;;5027533;28;20620;-75
2023/02/04 06:04:50;;;;;;;1.63;1.30;;;7.20;98.20;;;;;;5055899;28;21019;-75
2023/02/04 06:07:18;;;;;;;1.67;1.30;;;7.20;98.20;;;;;;5048629;28;20580;-75
2023/02/04 06:09:45;;;;;;;1.60;1.23;;;7.20;98.20;;;;;;5058241;28;20687;-74
2023/02/04 06:12:15;;;;;;;1.60;1.20;;;7.20;98.20;;;;;;5050548;28;20481;-75
2023/02/04 06:14:42;;;;;;;1.60;1.20;;;7.20;98.20;;;;;;5057877;28;20461;-75
2023/02/04 06:17:09;;;;;;;1.60;1.20;;;7.20;98.20;;;;;;5053795;28;20504;-75
2023/02/04 06:19:36;;;;;;;1.60;1.30;;;7.20;98.20;;;;;;5059883;28;20458;-75
2023/02/04 06:22:03;;;;;;;1.60;1.20;;;7.20;98.20;;;;;;5044350;28;20474;-75
2023/02/04 06:24:32;;;;;;;1.67;1.30;;;7.20;98.20;;;;;;5060223;28;20458;-75
2023/02/04 06:26:58;;;;;;;1.60;1.20;;;7.20;98.20;;;;;;5050972;28;20474;-75
2023/02/04 06:29:25;;;;;;;1.60;1.20;;;7.20;98.20;;;;;;5062451;28;20814;-75
2023/02/04 06:31:52;;;;;;;1.60;1.30;;;7.10;98.20;;;;;;5053784;28;20557;-75
2023/02/04 06:34:19;;;;;;;1.63;1.30;;;7.10;98.20;;;;;;5054828;28;20463;-75
2023/02/04 06:36:46;;;;;;;1.70;1.40;;;7.10;98.20;;;;;;5048640;28;21005;-74
2023/02/04 06:39:13;;;;;;;1.60;1.40;;;7.10;98.20;;;;;;5061847;28;20458;-75
2023/02/04 06:41:42;;;;;;;1.63;1.27;;;7.10;98.20;;;;;;5040785;28;20478;-74
2023/02/04 06:44:08;;;;;;;1.60;1.30;;;7.10;98.20;;;;;;5055649;28;20508;-75
2023/02/04 06:46:35;;;;;;;1.60;1.30;;;7.10;98.20;;;;;;5042912;28;20492;-75
2023/02/04 06:49:02;;;;;;;1.67;1.33;;;7.10;98.20;;;;;;5061504;28;20466;-75
2023/02/04 06:51:30;;;;;;;1.63;1.20;;;7.20;98.20;;;;;;5047237;28;20914;-75
2023/02/04 06:53:58;;;;;;;1.70;1.30;;;7.10;98.20;;;;;;5059715;28;20468;-75
2023/02/04 06:56:28;;;;;;;1.63;1.40;;;7.10;98.20;;;;;;5038175;28;20508;-75
2023/02/04 06:58:56;;;;;;;1.67;1.30;;;7.10;98.20;;;;;;5055885;28;20828;-74
2023/02/04 07:01:23;;;;;;;1.63;1.30;;;7.10;98.20;;;;;;5044829;28;21084;-74
2023/02/04 07:03:50;;;;;;;1.60;1.20;;;7.10;98.20;;;;;;5057174;28;20497;-74
2023/02/04 07:06:18;;;;;;;1.60;1.20;;;7.10;98.20;;;;;;5053506;28;20865;-74
2023/02/04 07:08:46;;;;;;;1.60;1.20;;;7.10;98.20;;;;;;5062634;28;20827;-74
2023/02/04 07:11:13;;;;;;;1.63;1.40;;;7.10;98.20;;;;;;5050455;28;20559;-74
2023/02/04 07:14:06;;;;;;;1.60;1.10;;;7.10;98.20;;;;;;5070555;28;20458;-74
2023/02/04 07:16:34;;;;;;;1.60;1.20;;;7.10;98.20;;;;;;5041226;28;20478;-74
2023/02/04 07:19:02;;;;;;;1.60;1.20;;;7.10;98.20;;;;;;5059441;28;20506;-74
2023/02/04 07:21:29;;;;;;;1.70;1.30;;;7.10;98.20;;;;;;5049861;28;20980;-74
2023/02/04 07:23:57;;;;;;;1.60;1.20;;;7.10;98.20;;;;;;5057717;28;20486;-74
2023/02/04 07:26:24;;;;;;;1.60;1.20;;;7.00;98.20;;;;;;5036381;28;20536;-74
2023/02/04 07:28:52;;;;;;;1.67;1.30;;;7.00;98.20;;;;;;5053433;28;20512;-74
2023/02/04 07:31:19;;;;;;;1.60;1.20;;;7.00;98.20;;;;;;5048856;28;20493;-74
2023/02/04 07:33:47;;;;;;;1.60;1.20;;;7.00;98.20;;;;;;5052123;28;20458;-75
2023/02/04 07:36:14;;;;;;;1.60;1.30;;;7.00;98.20;;;;;;5053195;28;21052;-73
2023/02/04 07:38:41;;;;;;;1.63;1.27;;;7.00;98.20;;;;;;5065190;28;20870;-75
2023/02/04 07:41:08;;;;;;;1.60;1.20;;;7.00;98.20;;;;;;5045906;28;20542;-74
2023/02/04 07:43:35;;;;;;;1.60;1.30;;;7.10;98.20;;;;;;5061205;28;20577;-74
2023/02/04 07:46:02;;;;;;;1.70;1.40;;;7.10;98.20;;;;;;5056661;28;20461;-73
2023/02/04 07:48:29;;;;;;;1.60;1.30;;;7.10;98.20;;;;;;5075574;28;20580;-74
2023/02/04 07:50:57;;;;;;;1.70;1.50;;;7.10;98.20;;;;;;5058892;28;20466;-74
2023/02/04 07:53:24;;;;;;;1.60;1.20;;;7.10;98.20;;;;;;5069322;28;20471;-74
2023/02/04 07:55:51;;;;;;;1.60;1.20;;;7.10;98.20;;;;;;5053537;28;20955;-76
2023/02/04 07:58:18;;;;;;;1.60;1.30;;;7.10;98.20;;;;;;5068312;28;20515;-75
2023/02/04 08:00:45;;;;;;;1.70;1.40;;;7.20;98.20;;;;;;5069108;28;20465;-74
2023/02/04 08:03:15;;;;;;;1.60;1.20;;;7.20;98.20;;;;;;5041556;28;20531;-74
2023/02/04 08:05:42;;;;;;;1.70;1.30;;;7.20;98.20;;;;;;5070506;28;20835;-74
2023/02/04 08:08:11;;;;;;;1.60;1.23;;;7.20;98.20;;;;;;5075230;28;20481;-74
2023/02/04 08:10:38;;;;;;;1.60;1.20;;;7.30;98.20;;;;;;5070085;28;20456;-76
2023/02/04 08:13:05;;;;;;;1.67;1.30;;;7.30;98.20;;;;;;5071750;28;20488;-75
2023/02/04 08:15:32;;;;;;;1.63;1.20;;;7.40;98.20;;;;;;5054607;28;20676;-74
2023/02/04 08:17:59;;;;;;;1.60;1.20;;;7.40;98.20;;;;;;5061583;28;20590;-75
2023/02/04 08:20:26;;;;;;;1.60;1.20;;;7.40;98.20;;;;;;5058107;28;20455;-73
2023/02/04 08:22:53;;;;;;;1.60;1.20;;;7.50;98.20;;;;;;5049134;28;21045;-73
2023/02/04 08:25:22;;;;;;;1.60;1.30;;;7.50;98.20;;;;;;5062258;28;20556;-74
2023/02/04 08:27:49;;;;;;;1.60;1.20;;;7.50;98.20;;;;;;5049642;28;21071;-73
2023/02/04 08:30:16;;;;;;;1.63;1.30;;;7.60;98.20;;;;;;5057630;28;20477;-73
2023/02/04 08:32:43;;;;;;;1.60;1.20;;;7.60;98.20;;;;;;5045188;28;20561;-73
2023/02/04 08:35:10;;;;;;;1.60;1.20;;;7.60;98.20;;;;;;5060267;28;20457;-73
2023/02/04 08:37:37;;;;;;;1.60;1.20;;;7.70;98.20;;;;;;5038737;28;20481;-73
2023/02/04 08:40:05;;;;;;;1.60;1.20;;;7.70;98.20;;;;;;5052575;28;20854;-72
2023/02/04 08:42:34;;;;;;;1.60;1.20;;;7.80;98.20;;;;;;5057152;28;20533;-72
2023/02/04 08:45:02;;;;;;;1.60;1.20;;;7.80;98.20;;;;;;5057249;28;20545;-71
2023/02/04 08:47:29;;;;;;;1.60;1.20;;;7.80;98.20;;;;;;5055188;28;21086;-73
2023/02/04 08:49:56;;;;;;;1.63;1.30;;;7.90;98.20;;;;;;5055953;28;20470;-73
2023/02/04 08:52:24;;;;;;;1.60;1.30;;;7.90;98.20;;;;;;5054311;28;20572;-73
2023/02/04 08:54:51;;;;;;;1.67;1.30;;;8.00;98.20;;;;;;5061731;28;20462;-76
2023/02/04 08:57:18;;;;;;;1.60;1.20;;;8.00;98.20;;;;;;5061704;28;20806;-76
2023/02/04 08:59:47;;;;;;;1.60;1.30;;;8.10;98.20;;;;;;5054918;28;20454;-75
2023/02/04 09:02:14;;;;;;;1.60;1.20;;;8.10;98.20;;;;;;5044597;28;20496;-74
2023/02/04 09:04:41;;;;;;;1.70;1.30;;;8.20;98.20;;;;;;5053762;28;20476;-73
2023/02/04 09:07:09;;;;;;;1.60;1.20;;;8.30;98.20;;;;;;5038931;28;20486;-77
2023/02/04 09:09:36;;;;;;;1.60;1.20;;;8.30;98.20;;;;;;5060899;28;20709;-76
2023/02/04 09:12:03;;;;;;;1.60;1.20;;;8.40;98.20;;;;;;5045295;28;20496;-76
2023/02/04 09:14:31;;;;;;;1.60;1.20;;;8.50;98.20;;;;;;5057655;28;20468;-74
2023/02/04 09:17:00;;;;;;;1.60;1.20;;;8.60;98.20;;;;;;5038915;28;20512;-76
2023/02/04 09:19:27;;;;;;;1.60;1.10;;;8.60;98.20;;;;;;5053731;28;20909;-74
2023/02/04 09:21:55;;;;;;;1.60;1.17;;;8.70;98.20;;;;;;5044632;28;20510;-73
2023/02/04 09:24:23;;;;;;;1.60;1.20;;;8.70;98.20;;;;;;5054782;28;20871;-72
2023/02/04 09:26:55;;;;;;;1.60;1.10;;;8.80;98.20;;;;;;5044241;28;20978;-76
2023/02/04 09:29:22;;;;;;;1.60;1.20;;;8.80;98.20;;;;;;5056644;28;20488;-74
2023/02/04 09:31:49;;;;;;;1.60;1.20;;;8.80;98.20;;;;;;5043313;28;20923;-73
2023/02/04 09:34:18;;;;;;;1.60;1.20;;;8.90;98.20;;;;;;5049816;28;20462;-74
2023/02/04 09:36:45;;;;;;;1.60;1.20;;;8.90;98.20;;;;;;5048904;28;20564;-74
2023/02/04 09:39:12;;;;;;;1.60;1.10;;;8.90;98.20;;;;;;5064759;28;20469;-75
2023/02/04 09:41:47;;;;;;;1.60;1.20;;;9.00;98.20;;;;;;5041491;28;20553;-74
2023/02/04 09:44:32;;;;;;;1.60;1.10;;;9.00;98.20;;;;;;5057926;28;20583;-73
2023/02/04 09:47:01;;;;;;;1.60;1.20;;;9.00;98.20;;;;;;5042789;28;20540;-73
2023/02/04 09:49:29;;;;;;;1.60;1.20;;;9.10;98.20;;;;;;5061922;28;20473;-73
2023/02/04 09:51:56;;;;;;;1.60;1.20;;;9.10;98.20;;;;;;5051471;28;20549;-73
2023/02/04 09:54:24;;;;;;;1.63;1.17;;;9.20;98.20;;;;;;5060854;28;20484;-76
2023/02/04 10:02:35;;;;;;;1.60;1.20;;;9.30;98.20;;;;;;5045280;28;20495;-76
2023/02/04 10:05:04;;;;;;;1.60;1.10;;;9.40;98.20;;;;;;5060957;28;20458;-75
2023/02/04 10:07:31;;;;;;;1.60;1.10;;;9.40;98.20;;;;;;5046304;28;20485;-76
2023/02/04 10:09:58;;;;;;;1.60;1.10;;;9.40;98.20;;;;;;5062819;28;20461;-76
2023/02/04 10:12:55;;;;;;;1.60;1.10;;;9.40;98.20;;;;;;5055814;28;21088;-73
2023/02/04 10:15:41;;;;;;;1.60;1.10;;;9.50;98.20;;;;;;5065085;28;20464;-72
2023/02/04 10:29:56;;;;;;;1.60;1.10;;;9.70;98.20;;;;;;5043673;28;20700;-73
2023/02/04 10:32:28;;;;;;;1.60;1.23;;;9.70;98.20;;;;;;5028206;28;20490;-74
2023/02/04 10:35:00;;;;;;;1.60;1.30;;;9.80;98.20;;;;;;5034316;28;20458;-74
2023/02/04 10:37:30;;;;;;;1.60;1.10;;;9.80;98.20;;;;;;5022222;28;20510;-72
2023/02/04 10:39:58;;;;;;;1.60;1.10;;;9.90;98.20;;;;;;5033474;28;20579;-73
2023/02/04 10:42:26;;;;;;;1.60;1.10;;;9.90;98.20;;;;;;5021642;28;20879;-73
2023/02/04 10:44:53;;;;;;;1.60;1.10;;;9.90;98.20;;;;;;5033311;28;20919;-74
2023/02/04 10:47:22;;;;;;;1.60;1.20;;;9.90;98.20;;;;;;5024114;28;20874;-73
2023/02/04 10:49:54;;;;;;;1.60;1.10;;;10.00;98.20;;;;;;5039327;28;20826;-73
2023/02/04 10:52:24;;;;;;;1.60;1.20;;;10.00;98.20;;;;;;5026298;28;20885;-72
2023/02/04 10:54:53;;;;;;;1.60;1.10;;;10.10;98.20;;;;;;5018393;28;21077;-73
2023/02/04 10:57:23;;;;;;;1.60;1.20;;;10.30;98.20;;;;;;5031422;28;21207;-73
2023/02/04 10:59:52;;;;;;;1.60;1.20;;;10.30;98.20;;;;;;5040992;28;20462;-73
2023/02/04 11:02:36;;;;;;;1.60;1.10;;;10.40;98.20;;;;;;5034005;28;20560;-73
2023/02/04 11:05:06;;;;;;;1.60;1.13;;;10.50;98.20;;;;;;5042025;28;21188;-73
2023/02/04 11:07:33;;;;;;;1.60;1.10;;;10.60;98.20;;;;;;5031172;28;20489;-72
2023/02/04 11:10:02;;;;;;;1.60;1.10;;;10.60;98.20;;;;;;5044905;28;20533;-72
2023/02/04 11:12:41;;;;;;;1.60;1.10;;;10.70;98.20;;;;;;5034520;28;20516;-73
2023/02/04 11:15:43;;;;;;;1.60;1.20;;;10.80;98.20;;;;;;5046667;28;20462;-73
2023/02/04 11:18:12;;;;;;;1.60;1.10;;;10.90;98.20;;;;;;5016992;28;20478;-71
2023/02/04 11:20:40;;;;;;;1.60;1.10;;;11.00;98.20;;;;;;5046155;28;20560;-73
2023/02/04 11:23:31;;;;;;;1.70;1.33;;;11.10;98.20;;;;;;5032330;28;20968;-72
2023/02/04 11:26:09;;;;;;;1.67;1.13;;;11.10;98.20;;;;;;5038763;28;20475;-71
2023/02/04 11:29:00;;;;;;;1.63;1.10;;;11.10;98.20;;;;;;5046255;28;20474;-71
2023/02/04 11:31:41;;;;;;;1.60;1.17;;;11.00;98.20;;;;;;5020981;28;20494;-71
2023/02/04 11:34:13;;;;;;;1.60;1.10;;;11.00;98.20;;;;;;5048111;28;20528;-72
2023/02/04 11:36:55;;;;;;;1.60;1.10;;;11.10;98.20;;;;;;5034061;28;20482;-73
2023/02/04 11:39:24;;;;;;;1.60;1.07;;;11.10;98.20;;;;;;5041238;28;20470;-71
2023/02/04 11:41:53;;;;;;;1.60;1.10;;;11.20;98.20;;;;;;5035037;28;20568;-72
2023/02/04 11:44:21;;;;;;;1.67;1.10;;;11.20;98.20;;;;;;5043548;28;20486;-73
2023/02/04 11:46:53;;;;;;;1.60;1.20;;;11.30;98.20;;;;;;5034383;28;20481;-70
2023/02/04 11:49:22;;;;;;;1.60;1.27;;;11.40;98.20;;;;;;5043051;28;20476;-70
2023/02/04 11:51:50;;;;;;;1.60;1.10;;;11.40;98.20;;;;;;5030813;28;21292;-70
2023/02/04 11:54:18;;;;;;;1.70;1.20;;;11.40;98.20;;;;;;5043409;28;20459;-70
2023/02/04 11:56:46;;;;;;;1.60;1.10;;;11.50;98.20;;;;;;5032877;28;20553;-72
2023/02/04 11:59:18;;;;;;;1.60;1.00;;;11.50;98.20;;;;;;5044684;28;20465;-73
2023/02/04 12:01:45;;;;;;;1.60;1.00;;;11.50;98.20;;;;;;5036327;28;21261;-71
2023/02/04 12:04:23;;;;;;;1.60;1.00;;;11.60;98.20;;;;;;5047672;28;20486;-72
2023/02/04 12:07:04;;;;;;;1.60;1.00;;;11.70;98.20;;;;;;5032797;28;20560;-72
2023/02/04 12:10:28;;;;;;;1.60;1.10;;;11.80;98.20;;;;;;5052763;28;20470;-73
2023/02/04 12:12:57;;;;;;;1.60;1.10;;;11.90;98.20;;;;;;5033964;28;20493;-72
2023/02/04 12:15:34;;;;;;;1.60;1.10;;;12.00;98.20;;;;;;5043664;28;20469;-72
2023/02/04 12:18:02;;;;;;;1.60;1.00;;;12.10;98.20;;;;;;5034130;28;20912;-73
2023/02/04 12:20:29;;;;;;;1.63;1.10;;;12.10;98.20;;;;;;5046472;28;20947;-72
2023/02/04 12:22:56;;;;;;;1.60;1.00;;;12.10;98.20;;;;;;5042308;28;20580;-71
2023/02/04 12:25:25;;;;;;;1.60;1.10;;;12.10;98.20;;;;;;5050969;28;20577;-71
2023/02/04 12:27:53;;;;;;;1.70;1.27;;;12.10;98.20;;;;;;5036629;28;20478;-73
2023/02/04 12:30:20;;;;;;;1.60;1.00;;;12.20;98.20;;;;;;5043449;28;20462;-70
2023/02/04 12:32:49;;;;;;;1.60;1.10;;;12.20;98.20;;;;;;5036513;28;21087;-72
2023/02/04 12:35:17;;;;;;;1.63;1.00;;;12.20;98.20;;;;;;5044947;28;20462;-73
2023/02/04 12:37:44;;;;;;;1.60;1.00;;;12.20;98.20;;;;;;5037665;28;20582;-73
2023/02/04 12:40:15;;;;;;;1.60;1.10;;;12.20;98.20;;;;;;5042190;28;20473;-72
2023/02/04 12:42:43;;;;;;;1.60;1.00;;;12.30;98.20;;;;;;5026351;28;20491;-73
2023/02/04 12:45:11;;;;;;;1.60;1.00;;;12.30;98.20;;;;;;5040879;28;20493;-71
2023/02/04 12:47:38;;;;;;;1.60;1.00;;;12.30;98.20;;;;;;5031930;28;20883;-72
2023/02/04 12:50:09;;;;;;;1.60;1.10;;;12.40;98.20;;;;;;5044665;28;21164;-72
2023/02/04 12:52:37;;;;;;;1.60;1.00;;;12.50;98.20;;;;;;5035518;28;20780;-72
2023/02/04 12:55:06;;;;;;;1.60;1.10;;;12.70;98.20;;;;;;5046232;28;20572;-72
2023/02/04 12:57:33;;;;;;;1.60;1.00;;;12.80;98.20;;;;;;5039518;28;20514;-71
2023/02/04 13:00:00;;;;;;;1.60;1.00;;;12.90;98.20;;;;;;5047187;28;20462;-71
2023/02/04 13:02:28;;;;;;;1.60;1.10;;;12.90;98.20;;;;;;5037493;28;21281;-71
2023/02/04 13:04:55;;;;;;;1.60;1.00;;;12.90;98.20;;;;;;5052167;28;20855;-71
2023/02/04 13:07:23;;;;;;;1.60;1.00;;;13.00;98.20;;;;;;5034214;28;20486;-72
2023/02/04 13:09:51;;;;;;;1.60;1.00;;;12.90;98.20;;;;;;5039763;28;20555;-73
2023/02/04 13:12:24;;;;;;;1.67;1.20;;;12.90;98.20;;;;;;5033211;28;20494;-73
2023/02/04 13:15:00;;;;;;;1.60;1.10;;;12.90;98.20;;;;;;5051578;28;20664;-73
2023/02/04 13:17:41;;;;;;;1.60;1.00;;;12.80;98.20;;;;;;5042218;28;20577;-72
2023/02/04 13:20:21;;;;;;;1.60;0.97;;;12.80;98.20;;;;;;5054874;28;20458;-72